Time;durP1;ratioP1;P1;durP2;ratioP2;P2;SDS_P1;SDS_P2;PMS_P1;PMS_P2;Temp;Humidity;BMP_temperature;BMP_pressure;BME280_temperature;BME280_humidity;BME280_pressure;Samples;Min_cycle;Max_cycle;Signal;HPM_P1;HPM_P2
2022/10/30 00:02:02;;;;;;;9.37;5.73;;;16.30;99.90;;;;;;10470285;28;20654;-80
2022/10/30 00:07:04;;;;;;;10.77;5.80;;;16.30;99.90;;;;;;10471131;28;20225;-80
2022/10/30 00:12:07;;;;;;;21.80;6.53;;;16.30;99.90;;;;;;10468333;28;20232;-81
2022/10/30 00:17:09;;;;;;;10.40;6.23;;;16.30;99.90;;;;;;10452785;28;20210;-81
2022/10/30 00:22:11;;;;;;;11.30;6.57;;;16.30;99.90;;;;;;10450404;28;20197;-82
2022/10/30 00:27:15;;;;;;;15.20;6.57;;;16.30;99.90;;;;;;10469101;28;20256;-82
2022/10/30 00:32:17;;;;;;;13.90;6.57;;;16.30;99.90;;;;;;10471534;28;20193;-82
2022/10/30 00:37:19;;;;;;;12.03;6.30;;;16.30;99.90;;;;;;10473424;28;20209;-81
2022/10/30 00:42:28;;;;;;;22.93;10.73;;;16.30;99.90;;;;;;10453613;28;20216;-81
2022/10/30 00:47:34;;;;;;;25.97;11.33;;;16.30;99.90;;;;;;10434663;28;20229;-82
2022/10/30 00:52:42;;;;;;;28.13;12.40;;;16.30;99.90;;;;;;10451623;28;20276;-82
2022/10/30 00:57:47;;;;;;;17.17;8.57;;;16.30;99.90;;;;;;10433370;28;20300;-81
2022/10/30 01:02:50;;;;;;;14.00;6.27;;;16.30;99.90;;;;;;10467059;28;20240;-82
2022/10/30 01:07:52;;;;;;;33.67;15.83;;;16.30;99.90;;;;;;10471371;28;20222;-81
2022/10/30 01:12:58;;;;;;;24.70;11.50;;;16.30;99.90;;;;;;10449130;28;20200;-80
2022/10/30 01:18:25;;;;;;;13.23;7.23;;;16.30;99.90;;;;;;10468322;28;20193;-82
2022/10/30 01:23:36;;;;;;;13.80;6.90;;;16.30;99.90;;;;;;10431864;28;20316;-80
2022/10/30 01:28:54;;;;;;;11.80;6.53;;;16.30;99.90;;;;;;10447750;28;20217;-80
2022/10/30 01:34:09;;;;;;;10.50;6.03;;;16.30;99.90;;;;;;10433249;28;20223;-81
2022/10/30 01:39:15;;;;;;;15.47;10.07;;;16.30;99.90;;;;;;10452093;28;20192;-81
2022/10/30 01:44:23;;;;;;;21.57;13.13;;;16.20;99.90;;;;;;10436870;28;20209;-81
2022/10/30 01:49:43;;;;;;;11.60;9.10;;;16.20;99.90;;;;;;10449046;28;20220;-80
2022/10/30 01:54:52;;;;;;;12.60;7.93;;;16.20;99.90;;;;;;10449160;28;20217;-80
2022/10/30 01:59:59;;;;;;;10.67;7.93;;;16.20;99.90;;;;;;10449178;28;20201;-80
2022/10/30 02:05:02;;;;;;;21.03;8.57;;;16.10;99.90;;;;;;10431310;28;20225;-81
2022/10/30 02:10:05;;;;;;;11.23;8.00;;;16.10;99.90;;;;;;10449940;28;20217;-82
2022/10/30 02:15:11;;;;;;;21.57;9.10;;;16.10;99.90;;;;;;10437686;28;20217;-82
2022/10/30 02:20:18;;;;;;;11.20;7.80;;;16.10;99.90;;;;;;10452177;28;20197;-82
2022/10/30 02:25:20;;;;;;;10.97;7.20;;;16.10;99.90;;;;;;10468639;28;20220;-81
2022/10/30 02:30:22;;;;;;;12.87;8.57;;;16.10;99.90;;;;;;10449746;28;20200;-81
2022/10/30 02:35:26;;;;;;;15.97;7.83;;;16.10;99.90;;;;;;10451493;28;20209;-82
2022/10/30 02:40:28;;;;;;;12.53;7.00;;;16.10;99.90;;;;;;10452188;28;20193;-81
2022/10/30 02:45:31;;;;;;;12.93;7.47;;;16.00;99.90;;;;;;10451501;28;20213;-81
2022/10/30 02:50:35;;;;;;;11.53;7.37;;;16.00;99.90;;;;;;10469401;28;20276;-82
2022/10/30 02:55:38;;;;;;;14.73;7.13;;;16.00;99.90;;;;;;10451524;28;20235;-82
2022/10/30 03:00:40;;;;;;;20.37;7.43;;;16.00;99.90;;;;;;10452796;28;20208;-81
2022/10/30 03:05:44;;;;;;;15.03;7.00;;;16.00;99.90;;;;;;10435788;28;20222;-82
2022/10/30 03:10:46;;;;;;;15.63;8.70;;;16.00;99.90;;;;;;10470774;28;20217;-80
2022/10/30 03:15:48;;;;;;;17.87;7.83;;;16.00;99.90;;;;;;10452386;28;20681;-81
2022/10/30 03:20:56;;;;;;;13.20;7.70;;;15.90;99.90;;;;;;10454192;28;20668;-81
2022/10/30 03:25:59;;;;;;;12.13;7.00;;;15.90;99.90;;;;;;10462068;28;20264;-82
2022/10/30 03:31:03;;;;;;;10.30;7.10;;;15.90;99.90;;;;;;10445011;28;20201;-81
2022/10/30 03:36:09;;;;;;;11.60;7.03;;;15.90;99.90;;;;;;10463185;28;20550;-82
2022/10/30 03:41:11;;;;;;;13.17;7.87;;;15.80;99.90;;;;;;10461578;28;20197;-81
2022/10/30 03:46:13;;;;;;;14.80;7.57;;;15.80;99.90;;;;;;10443976;28;20704;-81
2022/10/30 03:51:17;;;;;;;16.13;8.07;;;15.80;99.90;;;;;;10482956;28;20223;-81
2022/10/30 03:56:21;;;;;;;12.90;8.87;;;15.70;99.90;;;;;;10471345;28;20218;-81
2022/10/30 04:01:28;;;;;;;15.03;7.60;;;15.70;99.90;;;;;;10453309;28;20200;-79
2022/10/30 04:06:33;;;;;;;10.23;5.87;;;15.70;99.90;;;;;;10435559;28;20225;-82
2022/10/30 04:11:36;;;;;;;14.20;6.40;;;15.60;99.90;;;;;;10451926;28;20200;-81
2022/10/30 04:16:38;;;;;;;11.50;6.97;;;15.50;99.90;;;;;;10472166;28;20221;-81
2022/10/30 04:21:42;;;;;;;15.33;7.40;;;15.50;99.90;;;;;;10452686;28;20259;-80
2022/10/30 04:26:45;;;;;;;16.37;7.10;;;15.40;99.90;;;;;;10439363;28;20650;-82
2022/10/30 04:31:47;;;;;;;12.77;7.03;;;15.40;99.90;;;;;;10455340;28;20189;-82
2022/10/30 04:36:51;;;;;;;9.10;6.83;;;15.40;99.90;;;;;;10436661;28;20220;-80
2022/10/30 04:41:53;;;;;;;12.30;10.17;;;15.30;99.90;;;;;;10455363;28;20200;-83
2022/10/30 04:47:02;;;;;;;12.40;8.30;;;15.30;99.90;;;;;;10430700;28;20212;-81
2022/10/30 04:52:05;;;;;;;34.80;17.23;;;15.30;99.90;;;;;;10440107;28;20212;-81
2022/10/30 04:57:07;;;;;;;41.03;22.30;;;15.30;99.90;;;;;;10471072;28;20633;-81
2022/10/30 05:02:10;;;;;;;20.43;13.57;;;15.30;99.90;;;;;;10451117;28;20206;-80
2022/10/30 05:07:15;;;;;;;26.37;15.20;;;15.20;99.90;;;;;;10450876;28;20217;-80
2022/10/30 05:12:18;;;;;;;39.90;25.37;;;15.20;99.90;;;;;;10475227;28;20197;-81
2022/10/30 05:17:27;;;;;;;11.30;9.10;;;15.20;99.90;;;;;;10458017;28;20209;-82
2022/10/30 05:22:30;;;;;;;10.70;8.07;;;15.20;99.90;;;;;;10469831;28;20673;-81
2022/10/30 05:27:33;;;;;;;14.70;8.13;;;15.20;99.90;;;;;;10449321;28;20244;-81
2022/10/30 05:32:37;;;;;;;12.97;7.97;;;15.10;99.90;;;;;;10434441;28;20202;-82
2022/10/30 05:37:41;;;;;;;21.20;9.43;;;15.10;99.90;;;;;;10448460;28;20217;-80
2022/10/30 05:42:45;;;;;;;10.40;8.70;;;15.10;99.90;;;;;;10434384;28;20189;-81
2022/10/30 05:47:55;;;;;;;16.23;11.10;;;15.00;99.90;;;;;;10452294;28;20217;-81
2022/10/30 05:53:01;;;;;;;16.97;9.50;;;15.00;99.90;;;;;;10432678;28;20193;-81
2022/10/30 05:58:04;;;;;;;12.63;8.30;;;15.00;99.90;;;;;;10454847;28;20250;-80
2022/10/30 06:03:10;;;;;;;15.70;9.67;;;14.90;99.90;;;;;;10457919;28;20193;-82
2022/10/30 06:08:16;;;;;;;11.80;8.57;;;14.90;99.90;;;;;;10449979;28;20232;-82
2022/10/30 06:13:20;;;;;;;14.90;9.70;;;14.90;99.90;;;;;;10454938;28;20209;-81
2022/10/30 06:18:42;;;;;;;17.10;10.13;;;14.90;99.90;;;;;;10461036;28;20227;-81
2022/10/30 06:23:49;;;;;;;11.73;7.60;;;14.80;99.90;;;;;;10431772;28;20206;-83
2022/10/30 06:29:04;;;;;;;13.13;10.00;;;14.80;99.90;;;;;;10448722;28;20277;-83
2022/10/30 06:34:06;;;;;;;14.23;8.80;;;14.80;99.90;;;;;;10447505;28;20213;-81
2022/10/30 06:39:11;;;;;;;11.50;7.90;;;14.80;99.90;;;;;;10466353;28;20189;-82
2022/10/30 06:44:22;;;;;;;13.43;7.50;;;14.80;99.90;;;;;;10437739;28;20217;-82
2022/10/30 06:49:24;;;;;;;13.63;6.93;;;14.80;99.90;;;;;;10449107;28;20208;-83
2022/10/30 06:54:28;;;;;;;14.13;7.80;;;14.80;99.90;;;;;;10431989;28;20240;-83
2022/10/30 06:59:36;;;;;;;10.40;6.30;;;14.80;99.90;;;;;;10467436;28;20259;-83
2022/10/30 07:05:05;;;;;;;9.27;6.60;;;14.80;99.90;;;;;;10501576;22;20236;-81
2022/10/30 07:10:09;;;;;;;8.13;7.00;;;14.80;99.90;;;;;;10520844;28;20682;-80
2022/10/30 07:15:31;;;;;;;7.23;6.53;;;14.90;99.90;;;;;;10517403;28;20560;-80
2022/10/30 07:20:55;;;;;;;12.47;7.83;;;14.90;99.90;;;;;;10498528;28;20208;-81
2022/10/30 07:25:59;;;;;;;13.80;7.83;;;14.90;99.90;;;;;;10497745;28;20676;-81
2022/10/30 07:31:21;;;;;;;12.43;7.50;;;15.00;99.90;;;;;;10495316;28;20207;-83
2022/10/30 07:36:26;;;;;;;8.10;6.80;;;15.10;99.90;;;;;;10476793;28;20670;-80
2022/10/30 07:41:40;;;;;;;12.00;7.37;;;15.10;99.90;;;;;;10492604;28;20192;-80
2022/10/30 07:47:01;;;;;;;10.13;7.03;;;15.20;99.90;;;;;;10495526;28;20747;-80
2022/10/30 07:52:41;;;;;;;11.63;7.00;;;15.30;99.90;;;;;;10408887;28;20206;-79
2022/10/30 07:57:45;;;;;;;9.23;6.80;;;15.30;99.90;;;;;;10478765;28;20224;-81
2022/10/30 08:03:26;;;;;;;9.90;6.93;;;15.40;99.90;;;;;;10369311;28;20727;-82
2022/10/30 08:08:37;;;;;;;14.73;7.37;;;15.50;99.90;;;;;;10489700;28;20282;-81
2022/10/30 08:13:49;;;;;;;10.07;6.90;;;15.60;99.90;;;;;;10501840;28;20645;-79
2022/10/30 08:18:53;;;;;;;7.87;7.00;;;15.60;99.90;;;;;;10476048;28;20212;-80
2022/10/30 08:23:59;;;;;;;9.27;7.50;;;15.70;99.90;;;;;;10494480;28;20914;-80
2022/10/30 08:29:05;;;;;;;13.70;7.33;;;15.80;99.90;;;;;;10500904;28;20669;-82
2022/10/30 08:34:08;;;;;;;8.00;7.20;;;15.80;99.90;;;;;;10481463;28;20220;-83
2022/10/30 08:39:24;;;;;;;11.40;7.60;;;15.90;99.90;;;;;;10469796;28;20220;-82
2022/10/30 08:44:57;;;;;;;12.67;8.20;;;15.90;99.90;;;;;;10460396;28;20220;-80
2022/10/30 08:50:32;;;;;;;11.50;8.10;;;16.00;99.90;;;;;;10453036;28;20217;-81
2022/10/30 08:55:37;;;;;;;9.40;8.10;;;16.10;99.90;;;;;;10470785;28;20240;-80
2022/10/30 09:00:48;;;;;;;11.07;8.17;;;16.20;99.90;;;;;;10466646;28;20331;-82
2022/10/30 09:05:55;;;;;;;16.53;10.23;;;16.20;99.90;;;;;;10476523;28;20217;-80
2022/10/30 09:11:18;;;;;;;9.10;8.10;;;16.30;99.90;;;;;;10479504;28;20235;-81
2022/10/30 09:16:21;;;;;;;12.63;8.80;;;16.30;99.90;;;;;;10435888;28;20218;-81
2022/10/30 09:21:23;;;;;;;15.17;9.23;;;16.30;99.90;;;;;;10481181;28;20211;-82
2022/10/30 09:26:29;;;;;;;10.30;9.20;;;16.40;99.90;;;;;;10500636;28;20700;-81
2022/10/30 09:31:39;;;;;;;10.17;9.03;;;16.40;99.90;;;;;;10486425;28;20550;-80
2022/10/30 09:36:45;;;;;;;15.30;10.20;;;16.50;99.90;;;;;;10439926;28;20217;-80
2022/10/30 09:42:35;;;;;;;12.13;9.57;;;16.50;99.90;;;;;;10458294;28;20216;-80
2022/10/30 09:47:47;;;;;;;19.20;11.40;;;16.60;99.90;;;;;;10467831;28;20228;-80
2022/10/30 09:53:00;;;;;;;16.43;9.40;;;16.60;99.90;;;;;;10470128;28;20280;-82
2022/10/30 09:58:14;;;;;;;14.20;10.50;;;16.60;99.90;;;;;;10477636;28;20205;-83
2022/10/30 10:03:28;;;;;;;14.07;9.77;;;16.70;99.90;;;;;;10467885;28;20220;-83
2022/10/30 10:09:15;;;;;;;15.53;9.33;;;16.70;99.90;;;;;;10329158;28;20219;-80
2022/10/30 10:14:40;;;;;;;21.90;9.47;;;16.80;99.90;;;;;;10446505;28;20240;-84
2022/10/30 10:19:49;;;;;;;11.33;10.13;;;16.90;99.90;;;;;;10469211;28;20272;-85
2022/10/30 10:24:53;;;;;;;15.07;9.03;;;16.90;99.90;;;;;;10501209;28;20299;-84
2022/10/30 10:30:06;;;;;;;15.83;9.60;;;17.00;99.90;;;;;;10479105;28;20224;-82
2022/10/30 10:35:44;;;;;;;14.83;9.03;;;17.00;99.90;;;;;;10487596;28;20220;-84
2022/10/30 10:40:59;;;;;;;11.77;8.90;;;17.00;99.90;;;;;;10446398;28;20296;-83
2022/10/30 10:46:33;;;;;;;14.90;9.87;;;17.10;99.90;;;;;;10497326;28;20572;-83
2022/10/30 10:51:39;;;;;;;13.47;8.67;;;17.10;99.90;;;;;;10458432;28;20206;-85
2022/10/30 10:56:46;;;;;;;13.70;8.50;;;17.10;99.90;;;;;;10493538;28;20696;-83
2022/10/30 11:01:55;;;;;;;10.57;8.83;;;17.20;99.90;;;;;;10464212;28;20284;-82
2022/10/30 11:07:02;;;;;;;12.43;9.50;;;17.20;99.90;;;;;;10484197;28;20720;-83
2022/10/30 11:12:05;;;;;;;11.87;9.67;;;17.20;99.90;;;;;;10482917;28;20604;-82
2022/10/30 11:17:15;;;;;;;11.30;9.77;;;17.20;99.90;;;;;;10462929;28;20236;-84
2022/10/30 11:22:23;;;;;;;11.93;10.67;;;17.30;99.90;;;;;;10488147;28;20208;-84
2022/10/30 11:27:29;;;;;;;10.23;9.10;;;17.20;99.90;;;;;;10466705;28;20288;-83
2022/10/30 11:32:33;;;;;;;11.93;9.37;;;17.20;99.90;;;;;;10478249;28;20197;-83
2022/10/30 11:37:38;;;;;;;10.90;9.77;;;17.30;99.90;;;;;;10459399;28;20232;-84
2022/10/30 11:42:43;;;;;;;9.73;8.83;;;17.30;99.90;;;;;;10468145;28;20272;-84
2022/10/30 11:47:47;;;;;;;14.73;10.97;;;17.30;99.90;;;;;;10489243;28;20229;-83
2022/10/30 11:52:52;;;;;;;17.70;10.20;;;17.30;99.90;;;;;;10479699;28;20566;-80
2022/10/30 11:57:56;;;;;;;11.20;9.50;;;17.30;99.90;;;;;;10444883;28;20220;-80
2022/10/30 12:03:03;;;;;;;12.63;10.90;;;17.30;99.90;;;;;;10464220;28;20247;-83
2022/10/30 12:08:21;;;;;;;14.60;10.20;;;17.40;99.90;;;;;;10478025;28;20634;-83
2022/10/30 12:13:24;;;;;;;13.53;8.57;;;17.60;99.90;;;;;;10466249;28;20196;-83
2022/10/30 12:18:27;;;;;;;13.37;9.83;;;17.80;99.90;;;;;;10487654;28;20197;-81
2022/10/30 12:23:32;;;;;;;14.63;9.67;;;18.10;99.90;;;;;;10470352;28;20583;-81
2022/10/30 12:28:35;;;;;;;11.80;9.10;;;18.40;99.90;;;;;;10468928;28;20224;-80
2022/10/30 12:33:41;;;;;;;12.40;8.47;;;18.60;99.90;;;;;;10464757;28;20592;-81
2022/10/30 12:38:49;;;;;;;10.43;8.47;;;18.70;99.90;;;;;;10497173;28;20281;-81
2022/10/30 12:43:57;;;;;;;10.30;7.90;;;18.80;99.90;;;;;;10463869;28;20627;-81
2022/10/30 12:49:10;;;;;;;11.70;8.80;;;18.90;99.90;;;;;;10450590;28;20289;-80
2022/10/30 12:54:20;;;;;;;22.37;8.70;;;19.00;99.90;;;;;;10432777;28;20249;-81
2022/10/30 12:59:35;;;;;;;19.50;9.20;;;19.10;99.90;;;;;;10489699;28;20223;-80
2022/10/30 13:04:41;;;;;;;11.90;8.37;;;19.20;99.90;;;;;;10435519;28;20233;-80
2022/10/30 13:09:55;;;;;;;19.30;8.70;;;19.30;99.90;;;;;;10430861;28;20770;-81
2022/10/30 13:15:05;;;;;;;11.33;8.50;;;19.40;99.90;;;;;;10462905;28;20331;-81
2022/10/30 13:20:13;;;;;;;15.80;8.33;;;19.50;99.90;;;;;;10480000;28;20717;-81
2022/10/30 13:25:22;;;;;;;11.30;7.93;;;19.50;99.90;;;;;;10461202;28;20893;-81
2022/10/30 13:30:31;;;;;;;8.57;7.20;;;19.70;99.90;;;;;;10422015;28;20460;-80
2022/10/30 13:35:41;;;;;;;11.07;8.07;;;19.60;99.90;;;;;;10486263;28;20238;-80
2022/10/30 13:40:50;;;;;;;13.73;8.97;;;19.70;99.90;;;;;;10502238;28;20220;-81
2022/10/30 13:46:13;;;;;;;10.00;8.80;;;19.70;99.90;;;;;;10488231;28;20217;-81
2022/10/30 13:51:41;;;;;;;11.43;8.37;;;19.80;99.90;;;;;;10465342;28;20204;-81
2022/10/30 13:56:47;;;;;;;14.00;8.00;;;19.80;99.90;;;;;;10452226;28;20213;-82
2022/10/30 14:01:56;;;;;;;11.27;8.83;;;19.80;99.90;;;;;;10482178;28;20219;-81
2022/10/30 14:07:22;;;;;;;10.50;8.63;;;19.80;99.90;;;;;;10464459;28;20216;-80
2022/10/30 14:13:04;;;;;;;11.07;7.67;;;19.80;99.90;;;;;;10490354;28;20201;-79
2022/10/30 14:18:32;;;;;;;12.57;8.20;;;19.80;99.90;;;;;;10443179;28;20236;-81
2022/10/30 14:23:36;;;;;;;8.97;8.00;;;19.80;99.90;;;;;;10485616;28;20216;-81
2022/10/30 14:28:42;;;;;;;10.60;8.23;;;19.70;99.90;;;;;;10466361;28;20217;-81
2022/10/30 14:33:47;;;;;;;12.40;8.63;;;19.70;99.90;;;;;;10441334;28;20541;-81
2022/10/30 14:38:54;;;;;;;13.30;9.67;;;19.70;99.90;;;;;;10460411;28;20200;-80
2022/10/30 14:44:05;;;;;;;14.03;7.70;;;19.70;99.90;;;;;;10457551;28;20213;-79
2022/10/30 14:49:28;;;;;;;10.00;7.10;;;19.60;99.90;;;;;;10480693;28;20303;-80
2022/10/30 14:54:39;;;;;;;9.30;5.57;;;19.60;99.90;;;;;;10477848;28;20587;-80
2022/10/30 14:59:42;;;;;;;10.60;5.57;;;19.50;99.90;;;;;;10474699;28;20201;-80
2022/10/30 15:05:01;;;;;;;5.80;5.17;;;19.40;99.90;;;;;;10478151;28;20386;-81
2022/10/30 15:10:14;;;;;;;7.83;4.80;;;19.30;99.90;;;;;;10478665;28;20228;-80
2022/10/30 15:15:18;;;;;;;11.70;4.70;;;19.30;99.90;;;;;;10469277;28;20304;-81
2022/10/30 15:20:23;;;;;;;11.60;4.70;;;19.30;99.90;;;;;;10469398;28;20569;-81
2022/10/30 15:25:30;;;;;;;7.83;4.47;;;19.20;99.90;;;;;;10487469;28;20205;-81
2022/10/30 15:30:33;;;;;;;9.13;4.80;;;19.10;99.90;;;;;;10507083;28;20224;-81
2022/10/30 15:35:35;;;;;;;14.67;4.90;;;19.00;99.90;;;;;;10504355;28;20250;-83
2022/10/30 15:40:38;;;;;;;8.27;5.30;;;19.00;99.90;;;;;;10473767;28;20642;-81
2022/10/30 15:45:44;;;;;;;8.97;5.23;;;18.90;99.90;;;;;;10466860;28;20227;-81
2022/10/30 15:50:54;;;;;;;9.80;6.10;;;18.80;99.90;;;;;;10480814;28;20766;-81
2022/10/30 15:55:59;;;;;;;9.53;7.10;;;18.80;99.90;;;;;;10500622;28;20292;-81
2022/10/30 16:01:03;;;;;;;13.20;5.90;;;18.70;99.90;;;;;;10508536;28;20238;-81
2022/10/30 16:06:12;;;;;;;6.97;6.03;;;18.70;99.90;;;;;;10493613;28;20212;-81
2022/10/30 16:11:15;;;;;;;12.40;5.87;;;18.60;99.90;;;;;;10455934;28;20245;-81
2022/10/30 16:16:22;;;;;;;7.97;5.80;;;18.50;99.90;;;;;;10432138;28;20264;-81
2022/10/30 16:21:28;;;;;;;13.33;7.00;;;18.40;99.90;;;;;;10440829;28;20197;-82
2022/10/30 16:26:32;;;;;;;9.90;6.00;;;18.30;99.90;;;;;;10465320;28;20296;-81
2022/10/30 16:31:37;;;;;;;8.50;5.80;;;18.20;99.90;;;;;;10502246;28;20266;-81
2022/10/30 16:36:40;;;;;;;11.57;6.50;;;18.10;99.90;;;;;;10477078;28;20645;-81
2022/10/30 16:41:43;;;;;;;10.87;6.40;;;17.90;99.90;;;;;;10424464;28;20281;-81
2022/10/30 16:46:53;;;;;;;9.37;6.57;;;17.90;99.90;;;;;;10422975;28;20296;-82
2022/10/30 16:52:02;;;;;;;10.43;6.07;;;17.80;99.90;;;;;;10439203;28;20634;-82
2022/10/30 16:57:11;;;;;;;9.53;6.20;;;17.80;99.90;;;;;;10469835;28;20209;-82
2022/10/30 17:02:19;;;;;;;16.20;6.10;;;17.70;99.90;;;;;;10472458;28;20231;-81
2022/10/30 17:07:23;;;;;;;15.87;6.00;;;17.60;99.90;;;;;;10470436;28;20266;-81
2022/10/30 17:12:28;;;;;;;8.33;5.47;;;17.50;99.90;;;;;;10447097;28;20696;-81
2022/10/30 17:17:33;;;;;;;7.50;5.43;;;17.40;99.90;;;;;;10448296;28;20209;-80
2022/10/30 17:22:36;;;;;;;7.43;5.33;;;17.30;99.90;;;;;;10512488;28;20185;-83
2022/10/30 17:27:45;;;;;;;69.07;40.00;;;17.30;99.90;;;;;;10469147;28;20679;-83
2022/10/30 17:32:53;;;;;;;17.00;9.63;;;17.10;99.90;;;;;;10463888;28;20275;-83
2022/10/30 17:37:55;;;;;;;25.63;13.47;;;17.10;99.90;;;;;;10468492;28;20676;-81
2022/10/30 17:42:57;;;;;;;17.67;11.57;;;17.10;99.90;;;;;;10468623;28;20236;-81
2022/10/30 17:48:01;;;;;;;23.20;19.70;;;17.10;99.90;;;;;;10468702;28;20694;-81
2022/10/30 17:53:03;;;;;;;12.23;9.60;;;17.00;99.90;;;;;;10470726;28;20547;-83
2022/10/30 17:58:05;;;;;;;17.53;12.03;;;16.90;99.90;;;;;;10454267;28;20204;-83
2022/10/30 18:03:08;;;;;;;7.20;5.07;;;16.90;99.90;;;;;;10454442;28;20204;-83
2022/10/30 18:08:10;;;;;;;11.30;5.20;;;16.80;99.90;;;;;;10470528;28;20231;-83
2022/10/30 18:13:13;;;;;;;9.00;8.10;;;16.80;99.90;;;;;;10466211;28;20224;-82
2022/10/30 18:18:16;;;;;;;10.53;6.23;;;16.80;99.90;;;;;;10512678;28;20195;-83
2022/10/30 18:23:21;;;;;;;11.03;5.63;;;16.80;99.90;;;;;;10479097;28;20204;-82
2022/10/30 18:28:23;;;;;;;10.77;6.03;;;16.70;99.90;;;;;;10472955;28;20208;-83
2022/10/30 18:33:26;;;;;;;10.07;6.53;;;16.70;99.90;;;;;;10475235;28;20196;-83
2022/10/30 18:38:28;;;;;;;11.50;6.80;;;16.70;99.90;;;;;;10491416;28;20192;-81
2022/10/30 18:43:30;;;;;;;9.67;6.53;;;16.60;99.90;;;;;;10465086;28;20729;-81
2022/10/30 18:48:34;;;;;;;12.00;7.13;;;16.60;99.90;;;;;;10459104;28;20236;-81
2022/10/30 18:53:36;;;;;;;11.43;6.80;;;16.60;99.90;;;;;;10463174;28;20216;-81
2022/10/30 18:58:38;;;;;;;16.47;8.53;;;16.50;99.90;;;;;;10499265;28;20191;-81
2022/10/30 19:03:41;;;;;;;16.27;10.00;;;16.40;99.90;;;;;;10468256;28;20402;-82
2022/10/30 19:08:44;;;;;;;19.43;10.30;;;16.40;99.90;;;;;;10471828;22;20221;-81
2022/10/30 19:13:46;;;;;;;19.53;8.17;;;16.40;99.90;;;;;;10469414;28;20226;-81
2022/10/30 19:18:49;;;;;;;7.27;6.50;;;16.30;99.90;;;;;;10441022;28;20209;-80
2022/10/30 19:23:51;;;;;;;12.00;7.27;;;16.20;99.90;;;;;;10461529;28;20199;-79
2022/10/30 19:28:53;;;;;;;9.47;7.07;;;16.20;99.90;;;;;;10480408;28;20221;-78
2022/10/30 19:33:57;;;;;;;14.37;8.97;;;16.20;99.90;;;;;;10471815;28;20201;-79
2022/10/30 19:38:59;;;;;;;9.23;8.00;;;16.30;99.90;;;;;;10412914;28;20206;-79
2022/10/30 19:44:01;;;;;;;13.00;9.17;;;16.20;99.90;;;;;;10447659;28;20240;-80
2022/10/30 19:49:14;;;;;;;12.83;8.50;;;16.20;99.90;;;;;;10429518;28;20210;-79
2022/10/30 19:54:16;;;;;;;12.03;10.33;;;16.30;99.90;;;;;;10463447;28;20229;-82
2022/10/30 19:59:20;;;;;;;10.87;8.07;;;16.20;99.90;;;;;;10462880;28;20194;-82
2022/10/30 20:04:23;;;;;;;11.20;7.43;;;16.20;99.90;;;;;;10444871;28;20201;-79
2022/10/30 20:09:25;;;;;;;10.80;8.93;;;16.20;99.90;;;;;;10468877;28;20213;-81
2022/10/30 20:14:27;;;;;;;9.30;8.17;;;16.10;99.90;;;;;;10466894;28;20229;-82
2022/10/30 20:19:31;;;;;;;11.77;8.60;;;16.10;99.90;;;;;;10431860;28;20658;-82
2022/10/30 20:24:33;;;;;;;8.93;8.03;;;16.10;99.90;;;;;;10464995;28;20250;-82
2022/10/30 20:29:36;;;;;;;19.37;8.30;;;16.10;99.90;;;;;;10464491;28;20241;-79
2022/10/30 20:34:40;;;;;;;11.47;8.30;;;16.10;99.90;;;;;;10455996;28;20219;-79
2022/10/30 20:39:42;;;;;;;9.87;8.03;;;16.10;99.90;;;;;;10436102;28;20217;-79
2022/10/30 20:44:44;;;;;;;9.43;8.43;;;16.00;99.90;;;;;;10472850;28;20217;-80
2022/10/30 20:49:47;;;;;;;13.40;8.10;;;16.00;99.90;;;;;;10453034;28;20272;-81
2022/10/30 20:54:49;;;;;;;12.43;8.83;;;16.00;99.90;;;;;;10445399;28;20311;-80
2022/10/30 20:59:51;;;;;;;12.37;9.10;;;16.00;99.90;;;;;;10427943;28;20226;-79
2022/10/30 21:04:55;;;;;;;12.37;11.00;;;15.80;99.90;;;;;;10453783;28;20847;-79
2022/10/30 21:09:57;;;;;;;13.00;8.73;;;15.80;99.90;;;;;;10439150;28;20220;-79
2022/10/30 21:15:01;;;;;;;9.87;8.90;;;15.80;99.90;;;;;;10462723;28;20244;-79
2022/10/30 21:20:05;;;;;;;9.27;8.37;;;15.80;99.90;;;;;;10471774;28;20661;-79
2022/10/30 21:25:08;;;;;;;15.00;10.80;;;15.80;99.90;;;;;;10456802;28;20249;-79
2022/10/30 21:30:11;;;;;;;14.53;10.03;;;15.80;99.90;;;;;;10440061;28;20221;-79
2022/10/30 21:35:14;;;;;;;12.10;8.23;;;15.80;99.90;;;;;;10430151;28;20224;-80
2022/10/30 21:40:16;;;;;;;7.83;7.03;;;15.80;99.90;;;;;;10432816;28;20666;-79
2022/10/30 21:45:18;;;;;;;10.57;7.57;;;15.70;99.90;;;;;;10430449;28;20632;-80
2022/10/30 21:50:22;;;;;;;8.07;7.27;;;15.70;99.90;;;;;;10399867;28;20573;-80
2022/10/30 21:55:24;;;;;;;14.43;9.20;;;15.70;99.90;;;;;;10474436;28;20219;-81
2022/10/30 22:00:26;;;;;;;9.30;8.03;;;15.60;99.90;;;;;;10465514;28;20203;-82
2022/10/30 22:05:32;;;;;;;8.93;8.13;;;15.60;99.90;;;;;;10481354;28;20227;-83
2022/10/30 22:10:34;;;;;;;8.20;7.30;;;15.60;99.90;;;;;;10435987;28;20223;-82
2022/10/30 22:15:36;;;;;;;9.33;8.43;;;15.50;99.90;;;;;;10457838;28;20213;-82
2022/10/30 22:20:40;;;;;;;8.10;7.30;;;15.50;99.90;;;;;;10425934;28;20192;-82
2022/10/30 22:25:42;;;;;;;8.73;7.37;;;15.40;99.90;;;;;;10428985;28;20221;-79
2022/10/30 22:30:44;;;;;;;39.13;24.73;;;15.40;99.90;;;;;;10438388;28;20221;-79
2022/10/30 22:35:48;;;;;;;16.13;11.17;;;15.40;99.90;;;;;;10438387;28;20219;-80
2022/10/30 22:40:50;;;;;;;12.30;8.93;;;15.30;99.90;;;;;;10443598;28;20275;-80
2022/10/30 22:45:55;;;;;;;10.47;9.47;;;15.30;99.90;;;;;;10449467;28;20584;-79
2022/10/30 22:51:00;;;;;;;13.10;10.30;;;15.30;99.90;;;;;;10438467;28;20205;-80
2022/10/30 22:56:11;;;;;;;25.13;17.43;;;15.20;99.90;;;;;;10405816;28;20302;-80
2022/10/30 23:01:15;;;;;;;10.93;9.47;;;15.20;99.90;;;;;;10396072;28;20536;-81
2022/10/30 23:06:20;;;;;;;7.80;7.13;;;15.20;99.90;;;;;;10458745;28;20224;-82
2022/10/30 23:11:23;;;;;;;7.13;6.63;;;15.20;99.90;;;;;;10451799;28;20300;-80
2022/10/30 23:16:26;;;;;;;9.40;6.90;;;15.20;99.90;;;;;;10454690;28;20219;-79
2022/10/30 23:21:31;;;;;;;8.20;7.60;;;15.20;99.90;;;;;;10437606;28;20193;-83
2022/10/30 23:26:35;;;;;;;7.87;6.60;;;15.20;99.90;;;;;;10419202;28;20251;-80
2022/10/30 23:31:39;;;;;;;8.37;7.50;;;15.10;99.90;;;;;;10395694;28;20210;-80
2022/10/30 23:36:43;;;;;;;23.93;14.20;;;15.10;99.90;;;;;;10439309;28;20663;-80
2022/10/30 23:41:45;;;;;;;9.00;7.03;;;15.10;99.90;;;;;;10483436;28;20221;-80
2022/10/30 23:46:47;;;;;;;46.53;27.33;;;15.00;99.90;;;;;;10426005;28;20224;-80
2022/10/30 23:51:51;;;;;;;35.07;20.67;;;15.00;99.90;;;;;;10421729;28;20703;-80
2022/10/30 23:56:53;;;;;;;12.43;9.47;;;14.90;99.90;;;;;;10461878;28;20216;-80
